Time;durP1;ratioP1;P1;durP2;ratioP2;P2;SDS_P1;SDS_P2;PMS_P1;PMS_P2;Temp;Humidity;BMP_temperature;BMP_pressure;BME280_temperature;BME280_humidity;BME280_pressure;Samples;Min_cycle;Max_cycle;Signal;HPM_P1;HPM_P2
2023/09/03 00:02:07;;;;;;;;;4.00;4.00;;;;;24.30;47.99;101474.18;110014;1266;19494;-37
2023/09/03 00:04:34;;;;;;;;;3.33;3.33;;;;;24.29;48.27;101475.23;110033;1252;19755;-36
2023/09/03 00:07:01;;;;;;;;;2.00;2.00;;;;;24.29;48.35;101475.77;110019;1251;22854;-37
2023/09/03 00:09:29;;;;;;;;;2.00;2.00;;;;;24.29;48.23;101478.29;110013;1266;19375;-37
2023/09/03 00:11:56;;;;;;;;;2.00;2.00;;;;;24.28;48.05;101479.82;110037;1251;19666;-37
2023/09/03 00:14:23;;;;;;;;;2.00;2.00;;;;;24.27;48.19;101475.88;110014;1251;20108;-37
2023/09/03 00:16:51;;;;;;;;;2.00;2.00;;;;;24.29;48.16;101478.45;110021;1251;22037;-37
2023/09/03 00:19:18;;;;;;;;;1.00;1.00;;;;;24.28;48.40;101482.34;110031;1260;19567;-37
2023/09/03 00:21:45;;;;;;;;;2.00;2.00;;;;;24.29;48.46;101488.09;110004;1251;19968;-37
2023/09/03 00:24:13;;;;;;;;;1.00;1.00;;;;;24.29;48.34;101488.52;110040;1266;19359;-37
2023/09/03 00:26:41;;;;;;;;;2.00;2.00;;;;;24.30;48.04;101487.48;110011;1251;19718;-38
2023/09/03 00:29:08;;;;;;;;;1.50;1.50;;;;;24.29;48.19;101489.46;109902;1251;166661;-37
2023/09/03 00:31:35;;;;;;;;;2.00;2.00;;;;;24.28;48.34;101483.38;110051;1254;19377;-37
2023/09/03 00:34:03;;;;;;;;;1.50;1.50;;;;;24.28;48.26;101484.31;110004;1266;18389;-37
2023/09/03 00:36:30;;;;;;;;;1.00;1.00;;;;;24.27;48.17;101480.37;110028;1251;20053;-37
2023/09/03 00:38:58;;;;;;;;;1.67;1.67;;;;;24.26;48.28;101481.11;110015;1251;20704;-37
2023/09/03 00:41:25;;;;;;;;;1.00;1.00;;;;;24.26;48.57;101481.84;110040;1259;19559;-38
2023/09/03 00:43:52;;;;;;;;;2.00;2.00;;;;;24.25;48.51;101482.91;110015;1251;20127;-38
2023/09/03 00:46:20;;;;;;;;;2.00;2.00;;;;;24.24;48.48;101483.46;110018;1251;20829;-37
2023/09/03 00:48:47;;;;;;;;;2.00;2.00;;;;;24.23;48.43;101487.69;110049;1260;18381;-37
2023/09/03 00:51:14;;;;;;;;;2.00;2.00;;;;;24.22;48.44;101486.25;110009;1266;20018;-37
2023/09/03 00:53:42;;;;;;;;;1.00;1.00;;;;;24.25;48.29;101490.27;110023;1251;20776;-38
2023/09/03 00:56:09;;;;;;;;;2.00;2.00;;;;;24.25;48.39;101488.94;110014;1266;18472;-37
2023/09/03 00:58:37;;;;;;;;;1.00;1.00;;;;;24.24;48.26;101489.70;110012;1251;20142;-37
2023/09/03 01:01:04;;;;;;;;;2.00;2.00;;;;;24.25;48.46;101492.29;110026;1259;20681;-38
2023/09/03 01:03:32;;;;;;;;;2.00;2.00;;;;;24.24;48.44;101488.73;110009;1266;18328;-38
2023/09/03 01:05:59;;;;;;;;;1.00;1.00;;;;;24.25;48.64;101484.34;110036;1266;21683;-37
2023/09/03 01:08:26;;;;;;;;;2.00;2.00;;;;;24.25;48.37;101480.61;110036;1251;22872;-38
2023/09/03 01:10:54;;;;;;;;;2.00;2.00;;;;;24.26;48.40;101481.73;110016;1251;21298;-38
2023/09/03 01:13:21;;;;;;;;;1.50;1.50;;;;;24.27;48.56;101486.93;110041;1251;18603;-38
2023/09/03 01:15:48;;;;;;;;;1.00;1.00;;;;;24.26;48.40;101486.16;110028;1251;20951;-38
2023/09/03 01:18:16;;;;;;;;;2.00;2.00;;;;;24.26;48.39;101486.11;109904;1266;18420;-37
2023/09/03 01:20:43;;;;;;;;;2.00;2.00;;;;;24.25;48.29;101486.48;109927;1266;22363;-37
2023/09/03 01:23:10;;;;;;;;;2.00;2.00;;;;;24.25;48.38;101484.06;109961;1266;19329;-37
2023/09/03 01:25:38;;;;;;;;;2.00;2.00;;;;;24.25;48.43;101484.62;109959;1251;19660;-37
2023/09/03 01:28:05;;;;;;;;;2.00;2.00;;;;;24.25;48.65;101480.58;109973;1251;22105;-38
2023/09/03 01:30:32;;;;;;;;;2.00;2.00;;;;;24.25;48.38;101476.58;110039;1266;19353;-37
2023/09/03 01:32:59;;;;;;;;;1.00;1.00;;;;;24.21;48.48;101478.11;110036;1251;20501;-38
2023/09/03 01:35:27;;;;;;;;;2.00;2.00;;;;;24.23;48.65;101481.49;110042;1251;19899;-37
2023/09/03 01:37:54;;;;;;;;;2.00;2.00;;;;;24.23;48.51;101484.63;109997;1259;22052;-37
2023/09/03 01:40:22;;;;;;;;;2.00;2.00;;;;;24.23;48.49;101481.88;110021;1259;24150;-38
2023/09/03 01:42:49;;;;;;;;;1.00;1.00;;;;;24.25;48.58;101476.84;110042;1251;20314;-38
2023/09/03 01:45:17;;;;;;;;;2.00;2.00;;;;;24.23;48.52;101468.80;110030;1251;20785;-38
2023/09/03 01:47:44;;;;;;;;;1.00;1.00;;;;;24.24;48.74;101466.05;110026;1266;19619;-37
2023/09/03 01:50:11;;;;;;;;;2.00;2.00;;;;;24.24;48.37;101465.77;110027;1251;20061;-38
2023/09/03 01:52:39;;;;;;;;;2.00;2.00;;;;;24.25;48.43;101461.45;110022;1251;20796;-38
2023/09/03 01:55:06;;;;;;;;;2.00;2.00;;;;;24.24;48.44;101462.94;110027;1259;19538;-37
2023/09/03 01:57:33;;;;;;;;;1.00;1.00;;;;;24.25;48.51;101459.88;110014;1251;22179;-36
2023/09/03 02:00:00;;;;;;;;;2.00;2.00;;;;;24.23;48.39;101458.88;110037;1251;20784;-37
2023/09/03 02:02:28;;;;;;;;;2.00;2.00;;;;;24.24;48.74;101459.92;109930;1251;19678;-37
2023/09/03 02:04:55;;;;;;;;;2.00;2.00;;;;;24.21;48.51;101460.41;110017;1266;20276;-37
2023/09/03 02:07:23;;;;;;;;;2.00;2.00;;;;;24.22;48.63;101465.13;110027;1251;20733;-37
2023/09/03 02:09:50;;;;;;;;;2.00;2.00;;;;;24.22;48.34;101462.61;109993;1251;22310;-38
2023/09/03 02:12:23;;;;;;;;;2.00;2.00;;;;;24.21;48.62;101466.55;110033;1266;18615;-38
2023/09/03 02:14:50;;;;;;;;;2.00;2.00;;;;;24.17;48.64;101468.58;110007;1251;20801;-38
2023/09/03 02:17:19;;;;;;;;;2.00;2.00;;;;;24.20;48.50;101474.44;110023;1266;18369;-37
2023/09/03 02:19:47;;;;;;;;;1.00;1.00;;;;;24.21;48.40;101472.41;110005;1266;22585;-35
2023/09/03 02:22:14;;;;;;;;;4.50;4.50;;;;;24.23;48.50;101469.77;110028;1266;19245;-37
2023/09/03 02:24:41;;;;;;;;;5.00;5.00;;;;;24.20;48.47;101473.95;110001;1259;18252;-37
2023/09/03 02:27:09;;;;;;;;;2.00;2.00;;;;;24.14;48.86;101477.17;110032;1266;18663;-37
2023/09/03 02:29:36;;;;;;;;;6.00;6.00;;;;;24.13;48.88;101482.33;110062;1251;20918;-37
2023/09/03 02:32:03;;;;;;;;;3.00;3.00;;;;;24.11;49.06;101479.76;110021;1251;19695;-37
2023/09/03 02:34:31;;;;;;;;;2.00;2.00;;;;;24.12;49.10;101482.88;110017;1259;19932;-38
2023/09/03 02:36:58;;;;;;;;;2.00;2.00;;;;;24.10;48.83;101483.21;110033;1251;20790;-37
2023/09/03 02:39:25;;;;;;;;;1.00;1.00;;;;;24.11;48.86;101482.98;109993;1251;20298;-38
2023/09/03 02:41:53;;;;;;;;;2.00;2.00;;;;;24.12;48.97;101480.36;109996;1259;21142;-38
2023/09/03 02:44:20;;;;;;;;;1.50;1.50;;;;;24.12;48.97;101480.14;110017;1251;21674;-37
2023/09/03 02:46:47;;;;;;;;;1.00;1.00;;;;;24.13;48.73;101476.41;110025;1266;22500;-38
2023/09/03 02:49:15;;;;;;;;;2.00;2.00;;;;;24.11;49.05;101476.41;110052;1259;21043;-38
2023/09/03 02:51:42;;;;;;;;;2.00;2.00;;;;;24.09;48.90;101482.05;110027;1251;22171;-37
2023/09/03 02:54:09;;;;;;;;;1.50;1.00;;;;;24.10;48.90;101482.82;110033;1259;19457;-38
2023/09/03 02:56:37;;;;;;;;;2.00;2.00;;;;;24.12;48.69;101480.31;110048;1251;20184;-38
2023/09/03 02:59:04;;;;;;;;;1.00;1.00;;;;;24.12;48.97;101480.96;110029;1266;22681;-38
2023/09/03 03:01:33;;;;;;;;;2.00;2.00;;;;;24.11;48.97;101482.55;110038;1251;18581;-38
2023/09/03 03:04:01;;;;;;;;;2.00;2.00;;;;;24.14;48.63;101476.09;110035;1251;20058;-38
2023/09/03 03:06:28;;;;;;;;;2.00;2.00;;;;;24.13;48.84;101475.81;110016;1259;21897;-37
2023/09/03 03:08:55;;;;;;;;;2.00;2.00;;;;;24.10;48.81;101470.95;109913;1252;19700;-38
2023/09/03 03:11:23;;;;;;;;;2.00;2.00;;;;;24.10;49.00;101462.30;109998;1251;20116;-37
2023/09/03 03:13:52;;;;;;;;;2.00;2.00;;;;;24.10;49.04;101462.02;110058;1266;19390;-36
2023/09/03 03:16:19;;;;;;;;;1.00;1.00;;;;;24.10;49.03;101457.31;109943;1251;19677;-37
2023/09/03 03:18:46;;;;;;;;;2.00;2.00;;;;;24.12;48.74;101459.61;109985;1251;24057;-37
2023/09/03 03:21:14;;;;;;;;;2.00;2.00;;;;;24.13;48.75;101465.90;110004;1259;20778;-37
2023/09/03 03:23:42;;;;;;;;;2.00;2.00;;;;;24.13;48.87;101465.63;110059;1251;19661;-37
2023/09/03 03:26:09;;;;;;;;;2.00;2.00;;;;;24.12;48.92;101469.41;109993;1266;22909;-37
2023/09/03 03:28:37;;;;;;;;;2.00;2.00;;;;;24.09;48.98;101470.07;110019;1251;20696;-38
2023/09/03 03:31:04;;;;;;;;;1.00;1.00;;;;;24.10;48.88;101467.23;110019;1266;18470;-37
2023/09/03 03:33:31;;;;;;;;;2.00;2.00;;;;;24.09;49.10;101460.11;110035;1266;18923;-37
2023/09/03 03:35:59;;;;;;;;;4.00;2.00;;;;;24.10;48.96;101463.28;110033;1266;19205;-37
2023/09/03 03:38:26;;;;;;;;;2.00;2.00;;;;;24.12;49.05;101464.65;110009;1251;21725;-37
2023/09/03 03:40:53;;;;;;;;;2.00;2.00;;;;;24.10;48.83;101469.02;110009;1251;22826;-37
2023/09/03 03:43:20;;;;;;;;;1.00;1.00;;;;;24.12;48.83;101479.20;110033;1266;19480;-37
2023/09/03 03:45:48;;;;;;;;;2.00;2.00;;;;;24.12;48.88;101487.42;110012;1254;19848;-38
2023/09/03 03:48:15;;;;;;;;;4.00;4.00;;;;;24.11;48.95;101488.02;110021;1251;18616;-37
2023/09/03 03:50:42;;;;;;;;;2.00;2.00;;;;;24.10;48.81;101487.75;110025;1266;20782;-38
2023/09/03 03:53:10;;;;;;;;;2.00;2.00;;;;;24.10;48.95;101485.23;110029;1266;18336;-37
2023/09/03 03:55:37;;;;;;;;;2.00;2.00;;;;;24.09;48.87;101481.78;110016;1266;20148;-37
2023/09/03 03:58:05;;;;;;;;;2.00;2.00;;;;;24.10;48.97;101482.71;110023;1251;20814;-38
2023/09/03 04:00:32;;;;;;;;;2.00;2.00;;;;;24.09;49.04;101484.90;110057;1251;19623;-37
2023/09/03 04:02:59;;;;;;;;;2.00;2.00;;;;;24.07;48.97;101485.89;110032;1259;22607;-37
2023/09/03 04:05:28;;;;;;;;;2.00;2.00;;;;;24.09;48.96;101486.83;110013;1251;21129;-38
2023/09/03 04:07:56;;;;;;;;;2.00;2.00;;;;;24.07;48.97;101489.13;110028;1266;18544;-37
2023/09/03 04:10:23;;;;;;;;;2.00;2.00;;;;;24.10;48.86;101487.69;110033;1251;20198;-38
2023/09/03 04:12:50;;;;;;;;;2.00;2.00;;;;;24.12;48.98;101483.43;110013;1251;20714;-38
2023/09/03 04:15:18;;;;;;;;;2.00;2.00;;;;;24.11;48.84;101483.20;110021;1266;18531;-38
2023/09/03 04:17:45;;;;;;;;;2.00;2.00;;;;;24.10;48.80;101486.60;110043;1266;19495;-37
2023/09/03 04:20:12;;;;;;;;;2.00;2.00;;;;;24.14;48.71;101487.80;110006;1251;20772;-37
2023/09/03 04:22:40;;;;;;;;;2.00;2.00;;;;;24.14;48.80;101494.59;110029;1251;19657;-38
2023/09/03 04:25:07;;;;;;;;;2.00;2.00;;;;;24.14;48.86;101495.52;110023;1266;22549;-37
2023/09/03 04:27:34;;;;;;;;;4.00;2.00;;;;;24.13;48.77;101498.53;110035;1251;20821;-37
2023/09/03 04:30:02;;;;;;;;;2.00;2.00;;;;;24.12;48.86;101498.09;110028;1251;19661;-37
2023/09/03 04:32:29;;;;;;;;;2.00;2.00;;;;;24.12;48.77;101494.48;109940;1251;19934;-37
2023/09/03 04:34:56;;;;;;;;;3.33;2.00;;;;;24.11;48.78;101499.68;110034;1266;20411;-36
2023/09/03 04:37:24;;;;;;;;;2.00;2.00;;;;;24.10;48.83;101502.97;109957;1266;18453;-36
2023/09/03 04:39:51;;;;;;;;;2.00;2.00;;;;;24.12;48.67;101506.02;110018;1251;18639;-36
2023/09/03 04:42:18;;;;;;;;;4.00;4.00;;;;;24.11;48.99;101509.59;110033;1259;22895;-37
2023/09/03 04:44:46;;;;;;;;;2.00;2.00;;;;;24.11;48.77;101510.85;110029;1251;19761;-37
2023/09/03 04:47:13;;;;;;;;;2.00;2.00;;;;;24.11;48.95;101512.33;110031;1251;20141;-37
2023/09/03 04:49:40;;;;;;;;;2.00;2.00;;;;;24.10;48.88;101507.95;110026;1266;19244;-37
2023/09/03 04:52:08;;;;;;;;;2.67;2.00;;;;;24.13;48.92;101502.64;110042;1251;19704;-37
2023/09/03 04:54:35;;;;;;;;;2.00;2.00;;;;;24.12;48.95;101509.64;110032;1266;18664;-37
2023/09/03 04:57:02;;;;;;;;;5.50;4.00;;;;;24.10;48.87;101507.63;110069;1251;20899;-36
2023/09/03 04:59:30;;;;;;;;;4.00;4.00;;;;;24.11;49.03;101510.46;110028;1251;19548;-37
2023/09/03 05:01:57;;;;;;;;;2.00;2.00;;;;;24.12;48.62;101508.06;110035;1251;20394;-37
2023/09/03 05:04:24;;;;;;;;;2.00;2.00;;;;;24.15;48.69;101515.23;110039;1266;19359;-37
2023/09/03 05:06:52;;;;;;;;;2.00;2.00;;;;;24.14;48.69;101511.12;109922;1251;20790;-36
2023/09/03 05:09:19;;;;;;;;;4.00;4.00;;;;;24.17;48.75;101512.11;110051;1266;18670;-38
2023/09/03 05:11:46;;;;;;;;;4.00;4.00;;;;;24.19;48.51;101515.66;110065;1251;23863;-38
2023/09/03 05:14:14;;;;;;;;;4.00;4.00;;;;;24.21;48.71;101516.20;110010;1251;22029;-37
2023/09/03 05:16:41;;;;;;;;;4.00;4.00;;;;;24.25;48.41;101518.30;110030;1251;19932;-37
2023/09/03 05:19:08;;;;;;;;;4.00;4.00;;;;;24.25;48.39;101518.67;109997;1251;22745;-37
2023/09/03 05:21:36;;;;;;;;;4.00;4.00;;;;;24.26;48.53;101521.42;110021;1253;19658;-37
2023/09/03 05:24:04;;;;;;;;;4.00;4.00;;;;;24.24;48.40;101523.39;110018;1251;20232;-38
2023/09/03 05:26:31;;;;;;;;;4.00;4.00;;;;;24.29;48.28;101522.48;110066;1266;19583;-38
2023/09/03 05:28:58;;;;;;;;;5.00;5.00;;;;;24.26;48.29;101521.48;110037;1266;18468;-37
2023/09/03 05:31:27;;;;;;;;;4.00;4.00;;;;;24.23;48.40;101520.48;110005;1259;22758;-38
2023/09/03 05:33:54;;;;;;;;;5.00;4.00;;;;;24.25;48.18;101523.06;110055;1266;19321;-37
2023/09/03 05:36:21;;;;;;;;;4.00;4.00;;;;;24.19;48.33;101521.97;110011;1266;18361;-38
2023/09/03 05:38:49;;;;;;;;;4.00;4.00;;;;;24.23;48.45;101525.41;110024;1266;18637;-38
2023/09/03 05:41:16;;;;;;;;;4.00;4.00;;;;;24.26;48.26;101523.67;110031;1251;20777;-37
2023/09/03 05:43:43;;;;;;;;;5.67;5.00;;;;;24.25;48.41;101530.39;110019;1251;20325;-36
2023/09/03 05:46:10;;;;;;;;;6.00;6.00;;;;;24.29;48.20;101531.45;110006;1266;22933;-37
2023/09/03 05:48:38;;;;;;;;;6.00;5.00;;;;;24.31;48.20;101531.78;110044;1251;20770;-36
2023/09/03 05:51:05;;;;;;;;;6.00;6.00;;;;;24.21;48.41;101535.60;110028;1251;18833;-37
2023/09/03 05:53:32;;;;;;;;;6.00;6.00;;;;;24.25;48.51;101532.65;110012;1251;20264;-37
2023/09/03 05:56:00;;;;;;;;;5.00;5.00;;;;;24.31;48.16;101535.18;110010;1251;20746;-37
2023/09/03 05:58:27;;;;;;;;;9.00;8.00;;;;;24.28;48.47;101536.89;110038;1266;18328;-36
2023/09/03 06:00:54;;;;;;;;;9.00;8.00;;;;;24.24;48.34;101540.31;110004;1251;22749;-37
2023/09/03 06:03:22;;;;;;;;;5.00;5.00;;;;;24.28;48.24;101545.08;110034;1266;19249;-38
2023/09/03 06:05:49;;;;;;;;;7.00;7.00;;;;;24.27;48.27;101550.41;110028;1266;18461;-37
2023/09/03 06:08:16;;;;;;;;;6.67;6.67;;;;;24.32;48.34;101547.83;110061;1266;18650;-37
2023/09/03 06:10:44;;;;;;;;;6.00;6.00;;;;;24.38;48.50;101550.45;110064;1251;22128;-37
2023/09/03 06:13:11;;;;;;;;;13.00;12.00;;;;;24.39;48.61;101557.41;109929;1251;19703;-37
2023/09/03 06:15:38;;;;;;;;;10.00;10.00;;;;;24.42;48.08;101562.28;110006;1251;22612;-38
2023/09/03 06:18:06;;;;;;;;;12.00;10.00;;;;;24.44;48.15;101563.70;110021;1266;19386;-37
2023/09/03 06:20:37;;;;;;;;;11.00;10.00;;;;;24.42;48.27;101567.54;110019;1266;19956;-38
2023/09/03 06:23:04;;;;;;;;;10.00;10.00;;;;;24.45;48.08;101575.64;110018;1266;18748;-38
2023/09/03 06:25:31;;;;;;;;;10.00;9.00;;;;;24.51;47.88;101575.20;109994;1251;20790;-37
2023/09/03 06:27:59;;;;;;;;;13.50;13.00;;;;;24.56;47.87;101577.93;110009;1259;18804;-38
2023/09/03 06:30:26;;;;;;;;;10.00;10.00;;;;;24.60;47.59;101577.27;109998;1251;20044;-37
2023/09/03 06:32:53;;;;;;;;;15.00;12.50;;;;;24.61;47.39;101575.52;110015;1266;19388;-37
2023/09/03 06:35:21;;;;;;;;;17.00;13.50;;;;;24.63;47.23;101576.61;110026;1266;18730;-37
2023/09/03 06:37:48;;;;;;;;;14.00;14.00;;;;;24.63;47.05;101580.33;110007;1251;18827;-37
2023/09/03 06:40:16;;;;;;;;;14.00;14.00;;;;;24.62;46.97;101580.27;109986;1251;20807;-36
2023/09/03 06:42:43;;;;;;;;;16.00;16.00;;;;;24.66;46.98;101583.95;110011;1266;18641;-35
2023/09/03 06:45:11;;;;;;;;;14.00;14.00;;;;;24.64;46.70;101580.33;110019;1266;18699;-36
2023/09/03 06:47:39;;;;;;;;;17.50;13.50;;;;;24.65;46.72;101583.18;109968;1251;20849;-36
2023/09/03 06:50:06;;;;;;;;;14.00;13.50;;;;;24.66;46.39;101585.20;109881;1251;20078;-36
2023/09/03 06:52:34;;;;;;;;;16.00;14.00;;;;;24.65;46.39;101586.91;110022;1251;20190;-36
2023/09/03 06:55:01;;;;;;;;;22.00;20.00;;;;;24.63;46.18;101587.23;109898;1251;20798;-36
2023/09/03 06:57:28;;;;;;;;;21.00;19.00;;;;;24.62;45.75;101590.25;109962;1266;18658;-37
2023/09/03 06:59:56;;;;;;;;;22.00;20.00;;;;;24.59;45.82;101595.56;110045;1251;20386;-37
2023/09/03 07:02:23;;;;;;;;;22.00;20.00;;;;;24.57;46.13;101595.95;110054;1251;20735;-36
2023/09/03 07:04:51;;;;;;;;;17.00;17.00;;;;;24.53;46.17;101591.04;110066;1266;18616;-37
2023/09/03 07:07:18;;;;;;;;;18.00;18.00;;;;;24.52;46.12;101589.48;110027;1266;18716;-36
2023/09/03 07:09:45;;;;;;;;;20.00;18.00;;;;;24.58;46.17;101593.00;109961;1266;19580;-36
2023/09/03 07:12:13;;;;;;;;;20.00;18.00;;;;;24.61;46.28;101596.77;109970;1266;18589;-37
2023/09/03 07:14:40;;;;;;;;;18.00;17.00;;;;;24.59;46.36;101598.25;110006;1251;18727;-38
2023/09/03 07:17:07;;;;;;;;;18.00;17.00;;;;;24.57;46.60;101597.39;109997;1259;23122;-37
2023/09/03 07:19:35;;;;;;;;;16.50;16.00;;;;;24.56;46.33;101604.02;110019;1260;20956;-37
2023/09/03 07:22:02;;;;;;;;;17.00;16.50;;;;;24.56;46.27;101604.72;110017;1251;18748;-37
2023/09/03 07:24:29;;;;;;;;;19.00;17.00;;;;;24.62;45.92;101603.56;110021;1259;22131;-37
2023/09/03 07:26:57;;;;;;;;;19.00;16.00;;;;;24.65;45.52;101603.08;110001;1251;18606;-36
2023/09/03 07:29:24;;;;;;;;;17.00;14.00;;;;;24.63;45.52;101600.39;109990;1266;18816;-37
2023/09/03 07:31:51;;;;;;;;;13.00;13.00;;;;;24.55;45.51;101596.55;109980;1251;22893;-37
2023/09/03 07:34:19;;;;;;;;;16.00;14.00;;;;;24.42;45.98;101593.45;110002;1259;19968;-37
2023/09/03 07:36:46;;;;;;;;;13.00;12.00;;;;;24.56;45.72;101593.38;109968;1251;20230;-38
2023/09/03 07:39:13;;;;;;;;;13.50;13.50;;;;;24.66;45.59;101593.53;109949;1259;20695;-37
2023/09/03 07:41:40;;;;;;;;;12.00;10.00;;;;;24.70;45.81;101597.15;109938;1251;20084;-37
2023/09/03 07:44:08;;;;;;;;;13.00;13.00;;;;;24.78;45.36;101599.92;109920;1259;20158;-37
2023/09/03 07:46:35;;;;;;;;;11.00;11.00;;;;;24.83;45.26;101602.77;109995;1259;22372;-38
2023/09/03 07:49:03;;;;;;;;;13.00;10.00;;;;;24.83;45.24;101609.52;110001;1266;19640;-36
2023/09/03 07:51:30;;;;;;;;;7.00;7.00;;;;;24.85;44.98;101611.16;110027;1251;22527;-38
2023/09/03 07:53:57;;;;;;;;;11.50;11.00;;;;;24.85;44.72;101610.39;110014;1251;20751;-36
2023/09/03 07:56:25;;;;;;;;;10.00;10.00;;;;;24.78;43.55;101611.05;109988;1266;18476;-35
2023/09/03 07:58:52;;;;;;;;;11.00;9.50;;;;;24.75;42.89;101614.63;110045;1266;18748;-36
2023/09/03 08:01:20;;;;;;;;;12.00;9.00;;;;;24.73;42.77;101619.45;109979;1266;20767;-36
2023/09/03 08:03:47;;;;;;;;;10.00;9.00;;;;;24.70;42.78;101617.14;110034;1266;20247;-36
2023/09/03 08:06:15;;;;;;;;;12.00;12.00;;;;;24.67;41.98;101616.10;110025;1251;20141;-37
2023/09/03 08:08:42;;;;;;;;;12.00;10.00;;;;;24.56;41.91;101624.12;110005;1251;22226;-37
2023/09/03 08:11:09;;;;;;;;;10.00;9.00;;;;;24.64;41.62;101625.04;110002;1266;19912;-36
2023/09/03 08:13:36;;;;;;;;;9.00;9.00;;;;;24.59;41.35;101630.20;109995;1259;21237;-37
2023/09/03 08:16:04;;;;;;;;;12.00;12.00;;;;;24.62;41.48;101632.45;110021;1251;20789;-37
2023/09/03 08:18:31;;;;;;;;;12.00;12.00;;;;;24.72;42.47;101632.16;109977;1251;21224;-37
2023/09/03 08:20:59;;;;;;;;;14.00;12.50;;;;;24.72;42.76;101636.61;109993;1251;20155;-36
2023/09/03 08:23:27;;;;;;;;;14.00;13.00;;;;;24.70;42.93;101636.88;109991;1266;19388;-37
2023/09/03 08:25:54;;;;;;;;;13.00;13.00;;;;;24.76;42.77;101638.45;110013;1266;19971;-37
2023/09/03 08:28:22;;;;;;;;;16.00;16.00;;;;;24.77;42.54;101632.64;109986;1266;18737;-37
2023/09/03 08:30:49;;;;;;;;;13.50;11.00;;;;;24.80;42.27;101633.85;110021;1251;20678;-38
2023/09/03 08:33:16;;;;;;;;;12.00;10.67;;;;;24.71;40.88;101636.11;109918;1266;18630;-39
2023/09/03 08:35:44;;;;;;;;;107.50;79.50;;;;;24.71;40.93;101636.55;109944;1251;20199;-38
2023/09/03 08:38:11;;;;;;;;;237.00;181.00;;;;;24.87;41.70;101635.81;109992;1251;21284;-38
2023/09/03 08:40:38;;;;;;;;;256.00;180.00;;;;;24.96;42.37;101638.60;110019;1266;18979;-38
2023/09/03 08:43:06;;;;;;;;;242.00;170.50;;;;;24.98;42.16;101639.49;110016;1251;21590;-38
2023/09/03 08:45:33;;;;;;;;;96.00;72.00;;;;;25.09;42.48;101641.17;109992;1251;20803;-38
2023/09/03 08:48:00;;;;;;;;;75.00;55.00;;;;;25.17;42.40;101643.73;109890;1259;20382;-36
2023/09/03 08:50:28;;;;;;;;;39.00;36.00;;;;;25.28;42.01;101645.95;109912;1251;21527;-37
2023/09/03 08:52:55;;;;;;;;;35.50;28.00;;;;;25.28;41.36;101649.73;109916;1251;20783;-36
2023/09/03 08:55:22;;;;;;;;;14.00;13.00;;;;;25.21;40.31;101646.36;110032;1259;18593;-39
2023/09/03 08:57:54;;;;;;;;;15.50;13.00;;;;;25.12;38.50;101645.89;110040;1266;18621;-37
2023/09/03 09:00:21;;;;;;;;;13.00;12.00;;;;;25.09;36.86;101647.75;110012;1251;20758;-37
2023/09/03 09:02:49;;;;;;;;;16.00;14.00;;;;;25.18;36.73;101649.70;110021;1266;22417;-38
2023/09/03 09:05:16;;;;;;;;;17.00;17.00;;;;;25.24;38.35;101653.25;109979;1266;21862;-37
2023/09/03 09:07:43;;;;;;;;;21.00;18.00;;;;;25.26;39.81;101650.67;110011;1266;20744;-37
2023/09/03 09:10:11;;;;;;;;;16.00;16.00;;;;;25.31;40.27;101649.06;110018;1266;21957;-38
2023/09/03 09:12:38;;;;;;;;;14.00;14.00;;;;;25.28;40.48;101649.13;110002;1251;20215;-36
2023/09/03 09:15:05;;;;;;;;;14.00;13.00;;;;;25.28;40.53;101644.23;110033;1266;19377;-38
2023/09/03 09:17:33;;;;;;;;;13.00;12.00;;;;;25.27;39.68;101640.90;110026;1266;18632;-38
2023/09/03 09:20:00;;;;;;;;;17.50;15.00;;;;;25.33;39.26;101644.40;110003;1251;20143;-37
2023/09/03 09:22:27;;;;;;;;;19.00;15.00;;;;;25.45;39.27;101646.92;110018;1261;19337;-36
2023/09/03 09:24:55;;;;;;;;;17.00;14.50;;;;;25.53;38.90;101637.68;109980;1251;20080;-36
2023/09/03 09:27:22;;;;;;;;;13.00;12.00;;;;;25.48;38.44;101632.05;110079;1251;20170;-37
2023/09/03 09:29:49;;;;;;;;;14.00;13.00;;;;;25.45;37.94;101630.58;110038;1266;19374;-37
2023/09/03 09:32:17;;;;;;;;;13.00;11.00;;;;;25.40;37.68;101627.19;110078;1266;19094;-36
2023/09/03 09:34:44;;;;;;;;;11.00;11.00;;;;;25.35;37.75;101626.56;110020;1266;18664;-37
2023/09/03 09:37:11;;;;;;;;;10.50;10.50;;;;;25.43;37.71;101626.30;110023;1266;19697;-37
2023/09/03 09:39:39;;;;;;;;;11.00;10.00;;;;;25.40;38.51;101622.81;110044;1251;20070;-37
2023/09/03 09:42:06;;;;;;;;;11.00;10.50;;;;;25.34;38.96;101623.60;110043;1266;18795;-37
2023/09/03 09:44:33;;;;;;;;;10.00;10.00;;;;;25.30;39.23;101623.61;110025;1262;20656;-37
2023/09/03 09:47:01;;;;;;;;;8.50;8.50;;;;;25.27;39.93;101630.05;110006;1251;22746;-37
2023/09/03 09:49:28;;;;;;;;;9.00;8.00;;;;;25.22;40.27;101629.84;110020;1254;19984;-37
2023/09/03 09:51:55;;;;;;;;;9.00;9.00;;;;;25.21;40.44;101624.52;110025;1251;20983;-37
2023/09/03 09:54:22;;;;;;;;;12.00;10.00;;;;;25.18;41.06;101623.48;109997;1259;19591;-37
2023/09/03 09:56:50;;;;;;;;;10.00;9.00;;;;;25.14;41.44;101619.17;110054;1251;19153;-37
2023/09/03 09:59:17;;;;;;;;;9.00;9.00;;;;;25.17;41.62;101618.77;110018;1251;20844;-38
2023/09/03 10:01:45;;;;;;;;;8.33;8.33;;;;;25.21;41.69;101620.90;110035;1266;19909;-38
2023/09/03 10:04:12;;;;;;;;;9.00;9.00;;;;;25.17;41.93;101621.19;110001;1251;19993;-38
2023/09/03 10:06:40;;;;;;;;;7.00;7.00;;;;;25.17;41.79;101623.98;110036;1266;19376;-37
2023/09/03 10:09:08;;;;;;;;;10.00;7.00;;;;;25.17;41.79;101622.89;109988;1258;19892;-37
2023/09/03 10:11:36;;;;;;;;;6.00;6.00;;;;;25.15;41.50;101624.48;109996;1266;18603;-36
2023/09/03 10:14:03;;;;;;;;;9.00;9.00;;;;;25.12;41.45;101626.14;110035;1251;19393;-37
2023/09/03 10:16:30;;;;;;;;;10.50;7.50;;;;;25.09;41.59;101623.30;110007;1250;19666;-37
2023/09/03 10:18:58;;;;;;;;;7.00;7.00;;;;;25.07;41.46;101622.77;110008;1266;19287;-37
2023/09/03 10:21:25;;;;;;;;;5.50;5.00;;;;;25.04;41.85;101624.63;110029;1266;22925;-37
2023/09/03 10:23:52;;;;;;;;;6.00;5.00;;;;;25.04;41.83;101623.09;109988;1251;22292;-37
2023/09/03 10:26:21;;;;;;;;;5.00;5.00;;;;;25.04;41.74;101624.41;110004;1266;18677;-36
2023/09/03 10:28:48;;;;;;;;;5.00;5.00;;;;;25.03;41.63;101630.88;110010;1251;20810;-37
2023/09/03 10:31:15;;;;;;;;;5.50;5.50;;;;;25.02;41.58;101625.23;110020;1251;19763;-37
2023/09/03 10:33:43;;;;;;;;;5.00;5.00;;;;;25.00;41.64;101624.80;110026;1251;20077;-37
2023/09/03 10:36:10;;;;;;;;;5.00;5.00;;;;;24.98;41.74;101629.68;109955;1251;21991;-35
2023/09/03 10:38:37;;;;;;;;;5.00;4.00;;;;;24.99;41.72;101627.54;109987;1266;18350;-36
2023/09/03 10:41:04;;;;;;;;;4.00;4.00;;;;;24.97;41.88;101630.45;110059;1266;19975;-37
2023/09/03 10:43:32;;;;;;;;;4.50;4.50;;;;;24.99;41.84;101631.48;110023;1266;19426;-37
2023/09/03 10:45:59;;;;;;;;;5.33;5.00;;;;;24.99;42.10;101637.85;110015;1266;18446;-36
2023/09/03 10:48:27;;;;;;;;;6.00;5.00;;;;;24.99;41.68;101637.09;110023;1266;18727;-38
2023/09/03 10:50:54;;;;;;;;;4.00;4.00;;;;;24.98;41.65;101636.96;110003;1266;19361;-38
2023/09/03 10:53:22;;;;;;;;;4.00;4.00;;;;;24.98;41.63;101631.27;110034;1251;20797;-38
2023/09/03 10:55:49;;;;;;;;;6.00;6.00;;;;;24.95;41.78;101631.74;110022;1259;18642;-37
2023/09/03 10:58:21;;;;;;;;;2.67;2.67;;;;;24.90;41.80;101634.33;110018;1251;21625;-37
2023/09/03 11:00:49;;;;;;;;;4.00;4.00;;;;;24.91;41.77;101632.52;110005;1266;18174;-37
2023/09/03 11:03:16;;;;;;;;;4.00;4.00;;;;;24.90;41.68;101631.42;110017;1266;18651;-38
2023/09/03 11:05:43;;;;;;;;;6.00;5.00;;;;;24.90;41.82;101638.77;110006;1266;19531;-38
2023/09/03 11:08:11;;;;;;;;;7.00;6.00;;;;;24.93;41.53;101629.17;110034;1251;19689;-37
2023/09/03 11:10:38;;;;;;;;;2.00;2.00;;;;;24.90;41.73;101632.14;110018;1251;20109;-37
2023/09/03 11:13:05;;;;;;;;;3.00;3.00;;;;;24.87;41.79;101625.51;110010;1259;22261;-37